Dos Hermanas, Spain
Current Conditions -  °F | °C
As of 6:30 AM on Friday 31 Oct 2014 (Local Time) from LEZL Reporting Station
Clear Clear  
Wind Chill: 57°   Ceiling: Unl
Heat Index: 57°   Visibility: 6mi
Dew Point: 48°   Wind: 3mph
Humidity: 72%   Direction: 10°N
Pressure: 30.06"   Gusts: NA
Location:  37.28°N, 5.92°W
Report Text: LEZL 310530Z 01003KT CAVOK 14/09 Q1018 NOSIG
Loading
Personal Weather Stations






























Interactive Weather Map
Tropical Storm Tracking
New forecast layout! Learn more

10-Day Weather Forecast

Advertisements
Track Severe Weather on mobile